createdAt,value
2023-09-22T00:01:13.212Z,82.40
2023-09-22T00:03:42.140Z,82.60
2023-09-22T00:06:12.388Z,82.60
2023-09-22T00:08:40.677Z,82.90
2023-09-22T00:11:09.294Z,83.00
2023-09-22T00:13:37.916Z,83.20
2023-09-22T00:16:07.618Z,83.20
2023-09-22T00:18:36.060Z,83.30
2023-09-22T00:21:05.845Z,83.60
2023-09-22T00:23:35.622Z,83.80
2023-09-22T00:26:04.182Z,83.80
2023-09-22T00:28:32.569Z,84.00
2023-09-22T00:31:01.371Z,84.10
2023-09-22T00:33:30.206Z,84.30
2023-09-22T00:36:03.644Z,84.40
2023-09-22T00:38:32.894Z,84.40
2023-09-22T00:41:02.700Z,84.50
2023-09-22T00:43:31.170Z,84.80
2023-09-22T00:45:59.715Z,85.00
2023-09-22T00:48:30.562Z,85.20
2023-09-22T00:51:02.320Z,85.30
2023-09-22T00:53:33.450Z,85.70
2023-09-22T00:56:05.215Z,86.10
2023-09-22T00:58:34.953Z,86.40
2023-09-22T01:01:03.476Z,86.70
2023-09-22T01:03:33.182Z,86.80
2023-09-22T01:06:01.952Z,87.00
2023-09-22T01:08:30.354Z,87.70
2023-09-22T01:10:58.902Z,88.00
2023-09-22T01:13:28.546Z,88.70
2023-09-22T01:15:58.333Z,89.00
2023-09-22T01:18:26.709Z,89.50
2023-09-22T01:20:59.322Z,89.60
2023-09-22T01:23:29.111Z,90.00
2023-09-22T01:25:57.363Z,90.20
2023-09-22T01:28:25.622Z,90.50
2023-09-22T01:30:53.906Z,90.70
2023-09-22T01:33:22.335Z,90.90
2023-09-22T01:35:51.032Z,91.10
2023-09-22T01:38:24.671Z,91.40
2023-09-22T01:40:54.525Z,91.80
2023-09-22T01:43:22.847Z,92.20
2023-09-22T01:45:51.173Z,92.60
2023-09-22T01:48:19.559Z,93.20
2023-09-22T01:50:47.903Z,93.90
2023-09-22T01:53:16.175Z,94.30
2023-09-22T01:55:44.677Z,94.70
2023-09-22T01:58:15.609Z,95.00
2023-09-22T02:00:43.899Z,95.50
2023-09-22T02:03:12.605Z,95.80
2023-09-22T02:05:41.106Z,96.20
2023-09-22T02:08:09.844Z,96.70
2023-09-22T02:10:39.033Z,97.30
2023-09-22T02:13:10.286Z,97.60
2023-09-22T02:15:40.378Z,98.30
2023-09-22T02:18:09.160Z,98.80
2023-09-22T02:20:37.796Z,99.30
2023-09-22T02:23:06.843Z,99.60
2023-09-22T02:25:37.149Z,99.90
2023-09-22T02:28:06.200Z,99.90
2023-09-22T02:30:36.398Z,99.90
2023-09-22T02:33:08.015Z,99.90
2023-09-22T02:35:36.274Z,99.90
2023-09-22T02:38:04.695Z,99.90
2023-09-22T02:40:32.918Z,99.90
2023-09-22T02:43:01.503Z,99.90
2023-09-22T02:45:29.907Z,99.90
2023-09-22T02:47:58.787Z,99.90
2023-09-22T02:50:28.442Z,99.90
2023-09-22T02:52:56.663Z,99.90
2023-09-22T02:55:25.373Z,99.90
2023-09-22T02:57:55.243Z,99.90
2023-09-22T03:00:23.780Z,99.90
2023-09-22T03:02:54.479Z,99.90
2023-09-22T03:05:22.949Z,99.90
2023-09-22T03:07:56.298Z,99.90
2023-09-22T03:10:26.000Z,99.90
2023-09-22T03:12:54.836Z,99.90
2023-09-22T03:15:25.134Z,99.90
2023-09-22T03:17:53.853Z,99.90
2023-09-22T03:20:23.244Z,99.90
2023-09-22T03:22:51.493Z,99.90
2023-09-22T03:25:21.636Z,99.90
2023-09-22T03:27:49.943Z,99.90
2023-09-22T03:30:22.777Z,99.90
2023-09-22T03:32:54.348Z,99.90
2023-09-22T03:35:23.386Z,99.90
2023-09-22T03:37:52.407Z,99.90
2023-09-22T03:40:32.199Z,99.90
2023-09-22T03:43:00.963Z,99.90
2023-09-22T03:45:29.862Z,99.90
2023-09-22T03:47:58.196Z,99.90
2023-09-22T03:50:26.581Z,99.90
2023-09-22T03:52:55.371Z,99.90
2023-09-22T03:55:25.018Z,99.90
2023-09-22T03:57:54.072Z,99.90
2023-09-22T04:00:28.795Z,99.90
2023-09-22T04:02:57.806Z,99.90
2023-09-22T04:05:26.187Z,99.90
2023-09-22T04:07:55.431Z,99.90
2023-09-22T04:10:25.172Z,99.90
2023-09-22T04:12:53.469Z,99.90
2023-09-22T04:15:24.307Z,99.90
2023-09-22T04:17:53.574Z,99.90
2023-09-22T04:20:30.208Z,99.90
2023-09-22T04:22:59.853Z,99.90
2023-09-22T04:25:35.380Z,99.90
2023-09-22T04:28:10.903Z,99.90
2023-09-22T04:30:39.749Z,99.90
2023-09-22T04:33:10.362Z,99.90
2023-09-22T04:35:39.137Z,99.90
2023-09-22T04:38:08.334Z,99.90
2023-09-22T04:40:39.274Z,99.90
2023-09-22T04:43:08.865Z,99.90
2023-09-22T04:45:41.829Z,99.90
2023-09-22T04:48:10.952Z,99.90
2023-09-22T04:50:39.845Z,99.90
2023-09-22T04:53:08.862Z,99.90
2023-09-22T04:55:38.673Z,99.90
2023-09-22T04:58:09.136Z,99.90
2023-09-22T05:00:37.873Z,99.90
2023-09-22T05:03:08.986Z,99.90
2023-09-22T05:05:37.901Z,99.90
2023-09-22T05:08:09.069Z,99.90
2023-09-22T05:10:38.740Z,99.90
2023-09-22T05:13:07.769Z,99.90
2023-09-22T05:15:36.563Z,99.90
2023-09-22T05:18:06.262Z,99.90
2023-09-22T05:20:34.967Z,99.90
2023-09-22T05:23:04.884Z,99.90
2023-09-22T05:25:33.516Z,99.90
2023-09-22T05:28:03.914Z,99.90
2023-09-22T05:30:33.193Z,99.90
2023-09-22T05:33:02.066Z,99.90
2023-09-22T05:35:30.489Z,99.90
2023-09-22T05:37:59.132Z,99.90
2023-09-22T05:40:27.490Z,99.90
2023-09-22T05:42:56.214Z,99.90
2023-09-22T05:45:26.795Z,99.90
2023-09-22T05:47:55.061Z,99.90
2023-09-22T05:50:24.328Z,99.90
2023-09-22T05:52:52.599Z,99.90
2023-09-22T05:55:21.269Z,99.90
2023-09-22T05:57:49.637Z,99.90
2023-09-22T06:00:18.899Z,99.90
2023-09-22T06:02:52.505Z,99.90
2023-09-22T06:05:22.072Z,99.90
2023-09-22T06:07:50.747Z,99.90
2023-09-22T06:10:19.279Z,99.90
2023-09-22T06:12:47.716Z,99.90
2023-09-22T06:15:17.372Z,99.90
2023-09-22T06:17:47.983Z,99.90
2023-09-22T06:20:18.056Z,99.90
2023-09-22T06:22:48.671Z,99.90
2023-09-22T06:25:17.753Z,99.90
2023-09-22T06:27:46.097Z,99.90
2023-09-22T06:30:14.565Z,99.90
2023-09-22T06:32:44.427Z,99.90
2023-09-22T06:35:13.411Z,99.90
2023-09-22T06:37:43.712Z,99.90
2023-09-22T06:40:16.322Z,99.90
2023-09-22T06:42:46.697Z,99.90
2023-09-22T06:45:17.769Z,99.90
2023-09-22T06:47:47.248Z,99.90
2023-09-22T06:50:16.417Z,99.90
2023-09-22T06:52:46.594Z,99.90
2023-09-22T06:55:16.267Z,99.90
2023-09-22T06:57:45.246Z,99.90
2023-09-22T07:00:20.331Z,99.90
2023-09-22T07:02:49.740Z,99.90
2023-09-22T07:05:20.390Z,99.90
2023-09-22T07:07:51.526Z,99.90
2023-09-22T07:10:21.453Z,99.90
2023-09-22T07:12:49.778Z,99.90
2023-09-22T07:15:19.398Z,99.90
2023-09-22T07:17:47.691Z,99.90
2023-09-22T07:20:16.879Z,99.90
2023-09-22T07:22:46.429Z,99.90
2023-09-22T07:25:18.274Z,99.90
2023-09-22T07:27:48.326Z,99.90
2023-09-22T07:30:18.808Z,99.90
2023-09-22T07:32:48.940Z,99.90
2023-09-22T07:35:17.384Z,99.90
2023-09-22T07:37:47.002Z,99.90
2023-09-22T07:40:18.063Z,99.90
2023-09-22T07:42:46.562Z,99.90
2023-09-22T07:45:15.137Z,99.90
2023-09-22T07:47:43.419Z,99.90
2023-09-22T07:50:12.620Z,99.90
2023-09-22T07:52:43.784Z,99.90
2023-09-22T07:55:15.551Z,99.90
2023-09-22T07:57:49.509Z,99.90
2023-09-22T08:00:20.189Z,99.90
2023-09-22T08:02:50.813Z,99.90
2023-09-22T08:05:20.020Z,99.90
2023-09-22T08:07:50.765Z,99.90
2023-09-22T08:10:20.097Z,99.90
2023-09-22T08:12:50.048Z,99.90
2023-09-22T08:15:18.384Z,99.90
2023-09-22T08:17:48.644Z,99.90
2023-09-22T08:20:19.383Z,99.90
2023-09-22T08:22:48.556Z,99.90
2023-09-22T08:25:17.508Z,99.90
2023-09-22T08:27:46.100Z,99.90
2023-09-22T08:30:16.947Z,99.90
2023-09-22T08:32:46.699Z,99.90
2023-09-22T08:35:17.195Z,99.90
2023-09-22T08:37:46.316Z,99.90
2023-09-22T08:40:17.156Z,99.90
2023-09-22T08:42:47.069Z,99.90
2023-09-22T08:45:17.198Z,99.90
2023-09-22T08:47:47.263Z,99.90
2023-09-22T08:50:16.784Z,99.90
2023-09-22T08:52:46.643Z,99.90
2023-09-22T08:55:16.378Z,99.90
2023-09-22T08:57:46.723Z,99.90
2023-09-22T09:00:21.732Z,99.90
2023-09-22T09:02:51.485Z,99.90
2023-09-22T09:05:21.887Z,99.90
2023-09-22T09:07:51.090Z,99.90
2023-09-22T09:10:32.896Z,99.90
2023-09-22T09:13:03.683Z,99.90
2023-09-22T09:15:44.166Z,99.90
2023-09-22T09:18:14.069Z,99.90
2023-09-22T09:20:43.895Z,99.90
2023-09-22T09:23:17.794Z,99.90
2023-09-22T09:25:47.862Z,99.90
2023-09-22T09:28:18.246Z,99.90
2023-09-22T09:30:53.252Z,99.90
2023-09-22T09:33:22.883Z,99.90
2023-09-22T09:35:52.553Z,99.90
2023-09-22T09:38:22.092Z,99.90
2023-09-22T09:40:53.316Z,99.90
2023-09-22T09:43:22.218Z,99.90
2023-09-22T09:45:57.564Z,99.90
2023-09-22T09:48:27.537Z,99.90
2023-09-22T09:50:59.459Z,99.90
2023-09-22T09:53:38.943Z,99.90
2023-09-22T09:56:08.099Z,99.90
2023-09-22T09:58:37.824Z,99.90
2023-09-22T10:01:08.776Z,99.90
2023-09-22T10:03:40.802Z,99.90
2023-09-22T10:06:13.474Z,99.90
2023-09-22T10:08:42.885Z,99.90
2023-09-22T10:11:13.843Z,99.90
2023-09-22T10:13:42.382Z,99.90
2023-09-22T10:16:12.845Z,99.90
2023-09-22T10:18:51.652Z,99.90
2023-09-22T10:21:46.844Z,99.90
2023-09-22T10:24:24.832Z,99.90
2023-09-22T10:27:17.606Z,99.90
2023-09-22T10:29:52.913Z,99.90
2023-09-22T10:32:29.474Z,99.90
2023-09-22T10:35:04.802Z,99.90
2023-09-22T10:37:36.961Z,99.90
2023-09-22T10:40:13.194Z,99.90
2023-09-22T10:42:47.584Z,99.90
2023-09-22T10:45:19.226Z,99.90
2023-09-22T10:47:51.114Z,99.90
2023-09-22T10:50:22.646Z,99.90
2023-09-22T10:52:59.277Z,99.90
2023-09-22T10:55:36.510Z,99.90
2023-09-22T10:58:06.312Z,99.90
2023-09-22T11:00:37.788Z,99.90
2023-09-22T11:03:10.324Z,99.90
2023-09-22T11:05:39.149Z,99.90
2023-09-22T11:08:18.927Z,99.90
2023-09-22T11:10:50.624Z,99.90
2023-09-22T11:13:19.819Z,99.90
2023-09-22T11:15:49.889Z,99.90
2023-09-22T11:18:24.320Z,99.90
2023-09-22T11:20:58.321Z,99.90
2023-09-22T11:23:27.911Z,99.90
2023-09-22T11:26:00.338Z,99.90
2023-09-22T11:28:29.083Z,99.90
2023-09-22T11:30:59.517Z,99.90
2023-09-22T11:33:29.184Z,99.90
2023-09-22T11:35:58.773Z,99.90
2023-09-22T11:38:29.060Z,99.90
2023-09-22T11:41:09.640Z,99.90
2023-09-22T11:43:40.067Z,99.90
2023-09-22T11:46:10.394Z,99.90
2023-09-22T11:49:10.872Z,99.90
2023-09-22T11:51:49.973Z,99.90
2023-09-22T11:54:20.797Z,99.90
2023-09-22T11:56:50.150Z,99.90
2023-09-22T11:59:20.745Z,99.90
2023-09-22T12:01:50.938Z,99.90
2023-09-22T12:04:21.301Z,99.90
2023-09-22T12:06:50.378Z,99.90
2023-09-22T12:09:19.465Z,99.90
2023-09-22T12:11:49.200Z,99.90
2023-09-22T12:14:18.408Z,99.90
2023-09-22T12:16:47.403Z,99.90
2023-09-22T12:19:15.978Z,99.90
2023-09-22T12:21:45.888Z,99.90
2023-09-22T12:24:15.097Z,99.90
2023-09-22T12:26:43.797Z,99.90
2023-09-22T12:29:14.880Z,99.90
2023-09-22T12:31:43.789Z,99.90
2023-09-22T12:34:12.464Z,99.90
2023-09-22T12:36:40.766Z,99.90
2023-09-22T12:39:12.038Z,99.90
2023-09-22T12:41:40.550Z,99.90
2023-09-22T12:44:08.772Z,99.90
2023-09-22T12:46:37.256Z,99.90
2023-09-22T12:49:05.602Z,99.90
2023-09-22T12:51:34.198Z,99.90
2023-09-22T12:54:02.430Z,99.30
2023-09-22T12:56:32.042Z,98.60
2023-09-22T12:59:00.346Z,98.90
2023-09-22T13:01:28.824Z,98.90
2023-09-22T13:03:57.271Z,99.00
2023-09-22T13:06:25.635Z,99.00
2023-09-22T13:08:54.474Z,99.20
2023-09-22T13:11:22.744Z,98.00
2023-09-22T13:13:52.433Z,97.30
2023-09-22T13:16:22.816Z,97.30
2023-09-22T13:18:51.622Z,96.60
2023-09-22T13:21:20.049Z,96.30
2023-09-22T13:23:48.765Z,97.00
2023-09-22T13:26:21.893Z,96.10
2023-09-22T13:28:51.706Z,96.20
2023-09-22T13:31:21.859Z,96.10
2023-09-22T13:33:50.281Z,96.70
2023-09-22T13:36:18.985Z,97.00
2023-09-22T13:38:47.670Z,96.80
2023-09-22T13:41:17.498Z,96.70
2023-09-22T13:43:46.395Z,96.20
2023-09-22T13:46:15.902Z,96.50
2023-09-22T13:48:46.570Z,96.40
2023-09-22T13:51:15.190Z,96.90
2023-09-22T13:53:43.783Z,96.80
2023-09-22T13:56:19.835Z,97.00
2023-09-22T13:58:50.417Z,97.10
2023-09-22T14:01:21.900Z,96.90
2023-09-22T14:03:52.066Z,96.90
2023-09-22T14:06:22.310Z,97.30
2023-09-22T14:08:53.215Z,96.80
2023-09-22T14:11:22.355Z,96.80
2023-09-22T14:13:50.757Z,96.40
2023-09-22T14:16:19.460Z,96.30
2023-09-22T14:18:48.440Z,96.50
2023-09-22T14:21:18.140Z,96.60
2023-09-22T14:23:47.188Z,96.60
2023-09-22T14:26:16.029Z,96.40
2023-09-22T14:28:44.478Z,96.40
2023-09-22T14:31:19.529Z,96.20
2023-09-22T14:33:48.257Z,96.40
2023-09-22T14:36:18.144Z,96.10
2023-09-22T14:38:46.383Z,96.20
2023-09-22T14:41:14.785Z,96.10
2023-09-22T14:43:43.612Z,95.80
2023-09-22T14:46:17.102Z,96.10
2023-09-22T14:48:46.127Z,95.90
2023-09-22T14:51:14.542Z,95.70
2023-09-22T14:53:44.747Z,95.60
2023-09-22T14:56:13.641Z,95.70
2023-09-22T14:58:42.002Z,95.60
2023-09-22T15:01:11.204Z,96.00
2023-09-22T15:03:41.814Z,96.00
2023-09-22T15:06:10.615Z,96.20
2023-09-22T15:08:39.323Z,96.30
2023-09-22T15:11:09.708Z,96.90
2023-09-22T15:13:38.065Z,97.40
2023-09-22T15:16:07.817Z,97.60
2023-09-22T15:18:36.515Z,98.20
2023-09-22T15:21:07.741Z,98.50
2023-09-22T15:23:36.548Z,98.70
2023-09-22T15:26:05.229Z,98.70
2023-09-22T15:28:35.203Z,98.70
2023-09-22T15:31:03.511Z,98.90
2023-09-22T15:33:32.091Z,98.70
2023-09-22T15:36:00.658Z,98.50
2023-09-22T15:38:29.035Z,99.00
2023-09-22T15:41:01.749Z,99.20
2023-09-22T15:43:32.590Z,98.90
2023-09-22T15:46:02.611Z,99.20
2023-09-22T15:48:33.026Z,99.20
2023-09-22T15:51:01.749Z,99.50
2023-09-22T15:53:31.153Z,99.70
2023-09-22T15:56:00.525Z,99.90
2023-09-22T15:58:29.517Z,99.90
2023-09-22T16:00:57.886Z,99.90
2023-09-22T16:03:28.143Z,99.90
2023-09-22T16:05:56.642Z,99.90
2023-09-22T16:08:24.840Z,99.90
2023-09-22T16:10:53.759Z,99.90
2023-09-22T16:13:28.141Z,99.90
2023-09-22T16:15:57.280Z,99.90
2023-09-22T16:18:26.937Z,99.90
2023-09-22T16:20:55.465Z,99.90
2023-09-22T16:23:23.687Z,99.90
2023-09-22T16:25:55.325Z,99.90
2023-09-22T16:28:24.296Z,99.90
2023-09-22T16:30:54.843Z,99.90
2023-09-22T16:33:23.354Z,99.90
2023-09-22T16:35:53.512Z,99.90
2023-09-22T16:38:21.789Z,99.90
2023-09-22T16:40:50.421Z,99.90
2023-09-22T16:43:19.085Z,99.90
2023-09-22T16:45:47.458Z,99.90
2023-09-22T16:48:16.287Z,99.90
2023-09-22T16:50:52.363Z,99.90
2023-09-22T16:53:22.320Z,99.90
2023-09-22T16:55:51.482Z,99.90
2023-09-22T16:58:22.825Z,99.90
2023-09-22T17:00:52.524Z,99.90
2023-09-22T17:03:20.965Z,99.90
2023-09-22T17:05:51.221Z,99.90
2023-09-22T17:08:21.818Z,99.90
2023-09-22T17:10:50.196Z,99.90
2023-09-22T17:13:18.823Z,99.90
2023-09-22T17:15:48.239Z,99.90
2023-09-22T17:18:17.439Z,99.90
2023-09-22T17:20:45.897Z,99.90
2023-09-22T17:23:14.478Z,99.90
2023-09-22T17:25:52.072Z,99.90
2023-09-22T17:28:20.716Z,99.90
2023-09-22T17:30:49.206Z,99.90
2023-09-22T17:33:19.756Z,99.90
2023-09-22T17:35:50.021Z,99.90
2023-09-22T17:38:18.414Z,99.90
2023-09-22T17:40:51.726Z,99.90
2023-09-22T17:43:20.584Z,99.90
2023-09-22T17:45:57.579Z,99.90
2023-09-22T17:48:26.045Z,99.90
2023-09-22T17:50:54.535Z,99.90
2023-09-22T17:53:23.998Z,99.90
2023-09-22T17:55:54.004Z,99.90
2023-09-22T17:58:22.352Z,99.90
2023-09-22T18:00:53.030Z,99.90
2023-09-22T18:03:22.223Z,99.90
2023-09-22T18:05:50.906Z,99.90
2023-09-22T18:08:19.762Z,99.90
2023-09-22T18:10:48.753Z,99.90
2023-09-22T18:13:18.513Z,99.90
2023-09-22T18:15:48.877Z,99.90
2023-09-22T18:18:19.575Z,99.90
2023-09-22T18:20:52.740Z,99.90
2023-09-22T18:23:21.676Z,99.90
2023-09-22T18:26:04.554Z,99.90
2023-09-22T18:28:35.144Z,99.90
2023-09-22T18:31:04.197Z,99.90
2023-09-22T18:33:32.872Z,99.90
2023-09-22T18:36:02.167Z,99.90
2023-09-22T18:38:31.022Z,99.90
2023-09-22T18:41:00.871Z,99.90
2023-09-22T18:43:29.698Z,99.90
2023-09-22T18:45:59.464Z,99.90
2023-09-22T18:48:30.727Z,99.90
2023-09-22T18:51:00.126Z,99.90
2023-09-22T18:53:28.427Z,99.90
2023-09-22T18:55:57.573Z,99.90
2023-09-22T18:58:26.742Z,99.90
2023-09-22T19:00:55.726Z,99.90
2023-09-22T19:03:25.661Z,99.90
2023-09-22T19:05:55.105Z,99.90
2023-09-22T19:08:23.561Z,99.90
2023-09-22T19:10:52.769Z,99.90
2023-09-22T19:13:21.846Z,99.90
2023-09-22T19:15:51.040Z,99.90
2023-09-22T19:18:21.424Z,99.90
2023-09-22T19:20:51.023Z,99.90
2023-09-22T19:23:19.240Z,99.90
2023-09-22T19:25:47.999Z,99.90
2023-09-22T19:28:16.673Z,99.90
2023-09-22T19:30:45.276Z,99.90
2023-09-22T19:33:13.676Z,99.90
2023-09-22T19:35:43.131Z,99.90
2023-09-22T19:38:13.035Z,99.90
2023-09-22T19:40:42.336Z,99.90
2023-09-22T19:43:10.783Z,99.90
2023-09-22T19:45:39.175Z,99.90
2023-09-22T19:48:12.203Z,99.90
2023-09-22T19:50:40.716Z,99.90
2023-09-22T19:53:11.608Z,99.90
2023-09-22T19:55:44.886Z,99.90
2023-09-22T19:58:13.332Z,99.90
2023-09-22T20:00:41.786Z,99.90
2023-09-22T20:03:10.782Z,99.90
2023-09-22T20:05:39.304Z,99.90
2023-09-22T20:08:07.760Z,99.90
2023-09-22T20:10:36.218Z,99.90
2023-09-22T20:13:06.320Z,99.90
2023-09-22T20:15:34.711Z,99.90
2023-09-22T20:18:03.123Z,99.90
2023-09-22T20:20:31.478Z,99.90
2023-09-22T20:22:59.712Z,99.90
2023-09-22T20:25:28.023Z,99.90
2023-09-22T20:27:56.456Z,99.90
2023-09-22T20:30:26.089Z,99.90
2023-09-22T20:32:54.390Z,99.90
2023-09-22T20:35:22.851Z,99.90
2023-09-22T20:37:51.181Z,99.90
2023-09-22T20:40:19.883Z,99.90
2023-09-22T20:42:48.803Z,99.90
2023-09-22T20:45:18.499Z,99.90
2023-09-22T20:47:48.774Z,99.90
2023-09-22T20:50:18.499Z,99.90
2023-09-22T20:52:46.871Z,99.90
2023-09-22T20:55:15.850Z,99.90
2023-09-22T20:57:45.295Z,99.90
2023-09-22T21:00:17.601Z,99.90
2023-09-22T21:02:47.415Z,99.90
2023-09-22T21:05:16.368Z,99.90
2023-09-22T21:07:44.743Z,99.90
2023-09-22T21:10:14.579Z,99.90
2023-09-22T21:12:43.554Z,99.90
2023-09-22T21:15:12.029Z,99.90
2023-09-22T21:17:40.552Z,99.90
2023-09-22T21:20:11.830Z,99.90
2023-09-22T21:22:40.717Z,99.90
2023-09-22T21:25:10.729Z,99.90
2023-09-22T21:27:39.641Z,99.90
2023-09-22T21:30:09.519Z,99.90
2023-09-22T21:32:38.112Z,99.90
2023-09-22T21:35:07.558Z,99.90
2023-09-22T21:37:39.907Z,99.90
2023-09-22T21:40:09.458Z,99.90
2023-09-22T21:42:38.938Z,99.90
2023-09-22T21:45:08.437Z,99.90
2023-09-22T21:47:37.099Z,99.90
2023-09-22T21:50:07.827Z,99.90
2023-09-22T21:52:37.977Z,99.90
2023-09-22T21:55:07.430Z,99.90
2023-09-22T21:57:36.199Z,99.90
2023-09-22T22:00:08.234Z,99.90
2023-09-22T22:02:40.200Z,99.90
2023-09-22T22:05:13.891Z,99.90
2023-09-22T22:07:45.604Z,99.90
2023-09-22T22:10:14.535Z,99.90
2023-09-22T22:12:43.938Z,99.90
2023-09-22T22:15:13.337Z,99.90
2023-09-22T22:17:41.867Z,99.90
2023-09-22T22:20:18.672Z,99.90
2023-09-22T22:22:48.508Z,99.90
2023-09-22T22:25:17.806Z,99.90
2023-09-22T22:27:46.349Z,99.90
2023-09-22T22:30:16.744Z,99.90
2023-09-22T22:32:45.666Z,99.90
2023-09-22T22:35:16.848Z,99.90
2023-09-22T22:37:45.714Z,99.90
2023-09-22T22:40:17.599Z,99.90
2023-09-22T22:42:46.737Z,99.90
2023-09-22T22:45:16.891Z,99.90
2023-09-22T22:47:45.694Z,99.90
2023-09-22T22:50:15.032Z,99.90
2023-09-22T22:52:45.564Z,99.90
2023-09-22T22:55:15.511Z,99.90
2023-09-22T22:57:48.319Z,99.90
2023-09-22T23:00:17.052Z,99.90
2023-09-22T23:02:45.367Z,99.90
2023-09-22T23:05:15.351Z,99.90
2023-09-22T23:07:44.568Z,99.90
2023-09-22T23:10:16.165Z,99.90
2023-09-22T23:12:46.316Z,99.90
2023-09-22T23:15:14.880Z,99.90
2023-09-22T23:17:43.662Z,99.90
2023-09-22T23:20:15.510Z,99.90
2023-09-22T23:22:45.023Z,99.90
2023-09-22T23:25:13.329Z,99.90
2023-09-22T23:27:41.778Z,99.90
2023-09-22T23:30:12.190Z,99.90
2023-09-22T23:32:41.152Z,99.90
2023-09-22T23:35:10.478Z,99.90
2023-09-22T23:37:41.394Z,99.90
2023-09-22T23:40:11.709Z,99.90
2023-09-22T23:42:40.031Z,99.90
2023-09-22T23:45:11.464Z,99.90
2023-09-22T23:47:41.594Z,99.90
2023-09-22T23:50:12.150Z,99.90
2023-09-22T23:52:42.078Z,99.90
2023-09-22T23:55:11.455Z,99.90
2023-09-22T23:57:40.860Z,99.90
